Time;durP1;ratioP1;P1;durP2;ratioP2;P2;SDS_P1;SDS_P2;PMS_P1;PMS_P2;Temp;Humidity;BMP_temperature;BMP_pressure;BME280_temperature;BME280_humidity;BME280_pressure;Samples;Min_cycle;Max_cycle;Signal;HPM_P1;HPM_P2
2021/12/10 00:01:35;;;;;;;10.93;6.40;;;4.10;99.90;;;;;;4158360;28;20275;-59
2021/12/10 00:03:47;;;;;;;11.03;6.37;;;4.20;99.90;;;;;;4153055;28;20267;-57
2021/12/10 00:05:56;;;;;;;11.57;5.97;;;4.20;99.90;;;;;;4158235;28;20320;-59
2021/12/10 00:07:58;;;;;;;12.47;6.50;;;4.30;99.90;;;;;;4157197;28;20309;-59
2021/12/10 00:10:05;;;;;;;12.57;6.90;;;4.30;99.90;;;;;;4158339;28;20337;-59
2021/12/10 00:12:08;;;;;;;9.23;5.60;;;4.40;99.90;;;;;;4156761;28;20347;-59
2021/12/10 00:14:10;;;;;;;10.97;6.40;;;4.40;99.90;;;;;;4157996;28;20286;-60
2021/12/10 00:16:12;;;;;;;11.30;6.30;;;4.50;99.90;;;;;;4157240;28;20281;-56
2021/12/10 00:18:17;;;;;;;11.93;6.60;;;4.50;99.90;;;;;;4157431;28;20275;-60
2021/12/10 00:20:20;;;;;;;10.70;5.73;;;4.50;99.90;;;;;;4157995;28;20405;-60
2021/12/10 00:22:51;;;;;;;11.07;6.30;;;4.50;99.90;;;;;;4157127;28;20267;-61
2021/12/10 00:24:53;;;;;;;10.73;6.87;;;4.50;99.90;;;;;;4157107;28;20271;-59
2021/12/10 00:26:56;;;;;;;10.17;6.17;;;4.50;99.90;;;;;;4158032;28;21178;-58
2021/12/10 00:29:02;;;;;;;10.60;5.83;;;4.50;99.90;;;;;;4157310;28;20401;-58
2021/12/10 00:31:29;;;;;;;9.93;5.97;;;4.50;99.90;;;;;;4157170;28;20868;-57
2021/12/10 00:33:38;;;;;;;10.80;5.53;;;4.60;99.90;;;;;;4156819;28;20298;-56
2021/12/10 00:35:41;;;;;;;10.03;5.47;;;4.60;99.90;;;;;;4156937;28;20332;-57
2021/12/10 00:37:42;;;;;;;12.80;5.80;;;4.60;99.90;;;;;;4157308;28;20301;-59
2021/12/10 00:39:52;;;;;;;9.23;5.67;;;4.60;99.90;;;;;;4157131;28;20321;-58
2021/12/10 00:41:55;;;;;;;10.77;5.37;;;4.70;99.90;;;;;;4157581;28;21008;-57
2021/12/10 00:43:56;;;;;;;8.73;5.00;;;4.70;99.90;;;;;;4155454;28;21192;-61
2021/12/10 00:45:57;;;;;;;11.77;5.80;;;4.80;99.90;;;;;;4157002;28;21197;-59
2021/12/10 00:47:58;;;;;;;10.97;5.93;;;4.80;99.90;;;;;;4156256;28;20282;-59
2021/12/10 00:50:00;;;;;;;8.87;4.73;;;4.90;99.90;;;;;;4157111;28;20324;-58
2021/12/10 00:52:04;;;;;;;8.47;5.33;;;4.90;99.90;;;;;;4156188;28;20798;-58
2021/12/10 00:54:06;;;;;;;8.40;5.00;;;4.90;99.90;;;;;;4157991;28;20296;-59
2021/12/10 00:56:08;;;;;;;10.77;5.97;;;5.00;99.90;;;;;;4156664;28;20279;-57
2021/12/10 00:58:09;;;;;;;10.87;6.17;;;4.90;99.90;;;;;;4157647;28;20255;-59
2021/12/10 01:00:17;;;;;;;10.07;5.23;;;4.90;99.90;;;;;;4155270;28;20895;-57
2021/12/10 01:02:22;;;;;;;9.53;5.47;;;4.90;99.90;;;;;;4157925;28;20321;-60
2021/12/10 01:04:28;;;;;;;12.50;5.67;;;4.90;99.90;;;;;;4156402;28;20349;-60
2021/12/10 01:06:29;;;;;;;11.47;5.23;;;4.90;99.90;;;;;;4157272;28;20682;-57
2021/12/10 01:08:32;;;;;;;9.70;5.70;;;4.90;99.90;;;;;;4156406;28;20274;-59
2021/12/10 01:10:48;;;;;;;14.20;6.10;;;4.90;99.90;;;;;;4157392;28;20259;-60
2021/12/10 01:12:59;;;;;;;9.80;5.80;;;4.90;99.90;;;;;;4156104;28;20809;-58
2021/12/10 01:24:50;;;;;;;28.33;12.98;;;4.70;99.90;;;;;;4157966;28;20657;-57
2021/12/10 01:26:56;;;;;;;22.80;12.53;;;4.60;99.90;;;;;;4156530;28;20037;-57
2021/12/10 01:28:59;;;;;;;26.37;12.93;;;4.50;99.90;;;;;;4157661;28;20259;-52
2021/12/10 01:31:00;;;;;;;27.00;14.93;;;4.40;99.90;;;;;;4155816;28;20328;-58
2021/12/10 01:33:07;;;;;;;26.00;14.07;;;4.30;99.90;;;;;;4157691;28;20263;-58
2021/12/10 01:35:12;;;;;;;27.77;14.63;;;4.20;99.90;;;;;;4156230;28;20303;-57
2021/12/10 01:37:13;;;;;;;28.97;15.37;;;4.10;99.90;;;;;;4157471;28;20271;-56
2021/12/10 01:39:18;;;;;;;29.60;14.73;;;4.10;99.90;;;;;;4156077;28;21081;-58
2021/12/10 01:41:23;;;;;;;30.50;15.07;;;4.00;99.90;;;;;;4157644;28;20262;-57
2021/12/10 01:43:25;;;;;;;26.10;14.50;;;3.90;99.90;;;;;;4156189;28;20317;-56
2021/12/10 01:45:32;;;;;;;28.03;15.20;;;3.90;99.90;;;;;;4157658;28;20604;-57
2021/12/10 01:47:36;;;;;;;25.37;13.10;;;3.90;99.90;;;;;;4156247;28;20310;-59
2021/12/10 01:49:38;;;;;;;25.40;13.33;;;3.90;99.90;;;;;;4157402;28;20330;-59
2021/12/10 01:51:42;;;;;;;30.53;15.10;;;3.80;99.90;;;;;;4155978;28;20419;-59
2021/12/10 01:53:48;;;;;;;26.40;13.87;;;3.80;99.90;;;;;;4157143;28;20686;-61
2021/12/10 01:55:52;;;;;;;27.70;14.67;;;3.80;99.90;;;;;;4155937;28;20644;-59
2021/12/10 01:57:55;;;;;;;33.27;16.33;;;3.70;99.90;;;;;;4157323;28;21023;-58
2021/12/10 01:59:57;;;;;;;29.43;15.47;;;3.80;99.90;;;;;;4156265;28;20282;-54
2021/12/10 02:02:04;;;;;;;26.33;14.30;;;3.80;99.90;;;;;;4156808;28;20328;-58
2021/12/10 02:04:07;;;;;;;27.63;14.77;;;3.80;99.90;;;;;;4159612;28;20283;-58
2021/12/10 02:06:09;;;;;;;29.57;14.43;;;3.80;99.90;;;;;;4159611;28;20282;-58
2021/12/10 02:08:10;;;;;;;24.73;13.70;;;3.80;99.90;;;;;;4159847;28;20266;-57
2021/12/10 02:10:16;;;;;;;29.10;14.97;;;3.80;99.90;;;;;;4159156;28;20259;-57
2021/12/10 02:12:18;;;;;;;29.53;14.73;;;3.70;99.90;;;;;;4160294;28;20663;-60
2021/12/10 02:14:21;;;;;;;25.57;13.80;;;3.80;99.90;;;;;;4159029;28;20310;-55
2021/12/10 02:16:23;;;;;;;27.83;14.57;;;3.70;99.90;;;;;;4159981;28;20328;-54
2021/12/10 02:18:24;;;;;;;24.80;12.70;;;3.70;99.90;;;;;;4158772;28;20766;-58
2021/12/10 02:20:40;;;;;;;27.47;13.20;;;3.70;99.90;;;;;;4160201;28;20337;-58
2021/12/10 02:22:43;;;;;;;24.73;12.73;;;3.70;99.90;;;;;;4158502;28;20263;-57
2021/12/10 02:24:44;;;;;;;24.10;13.40;;;3.70;99.90;;;;;;4160131;28;20271;-59
2021/12/10 02:26:55;;;;;;;24.73;13.70;;;3.70;99.90;;;;;;4158883;28;20262;-60
2021/12/10 02:28:58;;;;;;;23.67;12.60;;;3.70;99.90;;;;;;4160219;28;20774;-54
2021/12/10 02:30:59;;;;;;;23.53;13.40;;;3.60;99.90;;;;;;4157855;28;20286;-53
2021/12/10 02:33:01;;;;;;;26.70;13.53;;;3.60;99.90;;;;;;4159788;28;20333;-57
2021/12/10 02:35:04;;;;;;;26.43;13.70;;;3.60;99.90;;;;;;4158154;28;20306;-56
2021/12/10 02:37:05;;;;;;;21.33;11.97;;;3.50;99.90;;;;;;4158310;28;21029;-59
2021/12/10 02:39:09;;;;;;;23.03;12.47;;;3.50;99.90;;;;;;4159092;28;20266;-58
2021/12/10 02:41:11;;;;;;;24.97;13.37;;;3.50;99.90;;;;;;4159438;28;20267;-58
2021/12/10 02:43:14;;;;;;;26.83;13.70;;;3.50;99.90;;;;;;4159179;28;20287;-59
2021/12/10 02:45:18;;;;;;;25.33;13.20;;;3.50;99.90;;;;;;4159511;28;20271;-59
2021/12/10 02:47:20;;;;;;;23.97;13.10;;;3.50;99.90;;;;;;4159573;28;20263;-58
2021/12/10 02:49:22;;;;;;;24.73;13.43;;;3.50;99.90;;;;;;4158318;28;20286;-57
2021/12/10 02:51:24;;;;;;;26.27;12.80;;;3.50;99.90;;;;;;4159555;28;20992;-58
2021/12/10 02:53:28;;;;;;;22.83;12.53;;;3.50;99.90;;;;;;4158131;28;20329;-56
2021/12/10 02:55:32;;;;;;;23.63;12.10;;;3.40;99.90;;;;;;4159646;28;20290;-59
2021/12/10 02:57:33;;;;;;;26.73;13.50;;;3.40;99.90;;;;;;4159134;28;20267;-57
2021/12/10 02:59:35;;;;;;;27.80;13.63;;;3.40;99.90;;;;;;4159442;28;20321;-57
2021/12/10 03:01:43;;;;;;;26.93;13.90;;;3.40;99.90;;;;;;4158132;28;20779;-60
2021/12/10 03:03:45;;;;;;;25.33;12.50;;;3.40;99.90;;;;;;4159335;28;20259;-56
2021/12/10 03:05:47;;;;;;;24.07;12.63;;;3.40;99.90;;;;;;4158161;28;20309;-60
2021/12/10 03:07:48;;;;;;;27.43;13.40;;;3.40;99.90;;;;;;4159430;28;20267;-55
2021/12/10 03:09:53;;;;;;;23.00;12.50;;;3.40;99.90;;;;;;4157892;28;20324;-62
2021/12/10 03:11:58;;;;;;;28.23;13.53;;;3.30;99.90;;;;;;4159554;28;20317;-58
2021/12/10 03:14:08;;;;;;;24.43;12.73;;;3.30;99.90;;;;;;4157767;28;20731;-59
2021/12/10 03:16:10;;;;;;;24.43;12.50;;;3.30;99.90;;;;;;4159344;28;20655;-58
2021/12/10 03:18:17;;;;;;;21.67;12.50;;;3.30;99.90;;;;;;4157991;28;20258;-59
2021/12/10 03:20:23;;;;;;;24.10;12.93;;;3.20;99.90;;;;;;4159032;28;20259;-59
2021/12/10 03:22:25;;;;;;;29.87;13.20;;;3.20;99.90;;;;;;4158067;28;20320;-58
2021/12/10 03:24:27;;;;;;;24.10;13.00;;;3.20;99.90;;;;;;4158863;28;20270;-58
2021/12/10 03:26:29;;;;;;;25.70;14.10;;;3.20;99.90;;;;;;4158060;28;20258;-59
2021/12/10 03:28:30;;;;;;;22.97;12.67;;;3.20;99.90;;;;;;4158973;28;20258;-60
2021/12/10 03:30:37;;;;;;;24.23;12.17;;;3.20;99.90;;;;;;4158536;28;20298;-60
2021/12/10 03:32:40;;;;;;;23.57;13.17;;;3.20;99.90;;;;;;4158077;28;20274;-59
2021/12/10 03:34:41;;;;;;;24.77;12.57;;;3.30;99.90;;;;;;4157757;28;20632;-54
2021/12/10 03:36:46;;;;;;;21.40;12.37;;;3.20;99.90;;;;;;4158028;28;20297;-59
2021/12/10 03:38:47;;;;;;;22.03;12.30;;;3.30;99.90;;;;;;4158964;28;20348;-58
2021/12/10 03:40:49;;;;;;;27.73;14.00;;;3.20;99.90;;;;;;4157587;28;20790;-61
2021/12/10 03:42:58;;;;;;;22.97;12.90;;;3.30;99.90;;;;;;4158787;28;20324;-55
2021/12/10 03:44:59;;;;;;;23.07;11.80;;;3.30;99.90;;;;;;4157676;28;20274;-59
2021/12/10 03:47:03;;;;;;;26.10;13.50;;;3.30;99.90;;;;;;4158615;28;20328;-60
2021/12/10 03:49:06;;;;;;;24.73;13.83;;;3.20;99.90;;;;;;4157357;28;20282;-57
2021/12/10 03:51:11;;;;;;;27.57;14.83;;;3.30;99.90;;;;;;4158640;28;20336;-57
2021/12/10 03:53:14;;;;;;;25.60;13.07;;;3.20;99.90;;;;;;4157522;28;20270;-60
2021/12/10 03:55:15;;;;;;;27.63;13.00;;;3.20;99.90;;;;;;4158477;28;20690;-58
2021/12/10 03:57:18;;;;;;;23.60;12.93;;;3.20;99.90;;;;;;4157446;28;21176;-60
2021/12/10 03:59:22;;;;;;;23.00;12.60;;;3.20;99.90;;;;;;4158688;28;20310;-56
2021/12/10 04:01:27;;;;;;;26.97;13.33;;;3.20;99.90;;;;;;4157138;28;20250;-58
2021/12/10 04:03:30;;;;;;;24.87;12.63;;;3.20;99.90;;;;;;4157954;28;20290;-58
2021/12/10 04:05:31;;;;;;;23.93;12.97;;;3.20;99.90;;;;;;4157516;28;20713;-58
2021/12/10 04:07:33;;;;;;;23.60;12.80;;;3.20;99.90;;;;;;4157586;28;20674;-60
2021/12/10 04:09:34;;;;;;;41.47;13.77;;;3.10;99.90;;;;;;4157758;28;20258;-60
2021/12/10 04:11:36;;;;;;;23.63;13.03;;;3.20;99.90;;;;;;4157537;28;20271;-60
2021/12/10 04:13:37;;;;;;;23.27;12.67;;;3.20;99.90;;;;;;4158116;28;20280;-59
2021/12/10 04:15:39;;;;;;;31.03;13.13;;;3.20;99.90;;;;;;4156872;28;20670;-56
2021/12/10 04:17:40;;;;;;;23.47;12.60;;;3.20;99.90;;;;;;4158064;28;20290;-57
2021/12/10 04:19:42;;;;;;;25.57;13.20;;;3.20;99.90;;;;;;4156643;28;20693;-60
2021/12/10 04:21:43;;;;;;;27.87;15.20;;;3.10;99.90;;;;;;4158258;28;20271;-59
2021/12/10 04:23:44;;;;;;;29.53;15.00;;;3.10;99.90;;;;;;4156816;28;20282;-57
2021/12/10 04:25:46;;;;;;;30.07;13.93;;;3.20;99.90;;;;;;4157371;28;20320;-59
2021/12/10 04:27:49;;;;;;;24.67;13.37;;;3.20;99.90;;;;;;4156831;28;20345;-58
2021/12/10 04:29:52;;;;;;;26.53;13.43;;;3.20;99.90;;;;;;4158163;28;20278;-57
2021/12/10 04:31:56;;;;;;;28.30;14.23;;;3.20;99.90;;;;;;4156888;28;20279;-59
2021/12/10 04:33:57;;;;;;;29.53;14.23;;;3.30;99.90;;;;;;4157649;28;20279;-61
2021/12/10 04:36:01;;;;;;;30.00;14.50;;;3.30;99.90;;;;;;4156868;28;20310;-57
2021/12/10 04:38:04;;;;;;;23.60;12.60;;;3.30;99.90;;;;;;4157804;28;20325;-60
2021/12/10 04:40:08;;;;;;;22.17;12.83;;;3.30;99.90;;;;;;4156891;28;20255;-59
2021/12/10 04:42:09;;;;;;;19.07;11.10;;;3.30;99.90;;;;;;4157481;28;20263;-62
2021/12/10 04:44:11;;;;;;;22.00;11.43;;;3.30;99.90;;;;;;4157185;28;20270;-60
2021/12/10 04:46:13;;;;;;;23.33;11.93;;;3.30;99.90;;;;;;4156388;28;20278;-59
2021/12/10 04:48:15;;;;;;;28.83;11.93;;;3.30;99.90;;;;;;4157148;28;20324;-58
2021/12/10 04:50:20;;;;;;;22.87;11.43;;;3.30;99.90;;;;;;4155924;28;20302;-62
2021/12/10 04:52:21;;;;;;;21.63;11.57;;;3.40;99.90;;;;;;4157875;28;20267;-62
2021/12/10 04:54:24;;;;;;;23.23;11.33;;;3.40;99.90;;;;;;4156121;28;20266;-62
2021/12/10 04:56:27;;;;;;;22.07;10.80;;;3.40;99.90;;;;;;4157334;28;20841;-60
2021/12/10 04:58:28;;;;;;;25.47;11.60;;;3.40;99.90;;;;;;4156706;28;20278;-60
2021/12/10 05:00:34;;;;;;;21.13;11.10;;;3.40;99.90;;;;;;4156981;28;20274;-60
2021/12/10 05:02:36;;;;;;;23.70;11.10;;;3.40;99.90;;;;;;4156346;28;20818;-58
2021/12/10 05:04:39;;;;;;;22.60;11.37;;;3.50;99.90;;;;;;4157561;28;20329;-59
2021/12/10 05:06:40;;;;;;;19.90;10.77;;;3.50;99.90;;;;;;4156277;28;20355;-61
2021/12/10 05:08:41;;;;;;;18.30;10.40;;;3.60;99.90;;;;;;4157102;28;20262;-60
2021/12/10 05:10:43;;;;;;;21.40;10.57;;;3.60;99.90;;;;;;4155934;28;20892;-60
2021/12/10 05:12:45;;;;;;;21.90;11.20;;;3.80;99.90;;;;;;4157037;28;20324;-61
2021/12/10 05:14:46;;;;;;;21.47;10.33;;;3.90;99.90;;;;;;4156128;28;20747;-61
2021/12/10 05:16:49;;;;;;;23.20;11.40;;;3.90;99.90;;;;;;4156442;28;20801;-60
2021/12/10 05:18:56;;;;;;;22.67;10.77;;;3.90;99.90;;;;;;4156093;28;20255;-59
2021/12/10 05:20:58;;;;;;;20.67;10.73;;;4.00;99.90;;;;;;4156072;28;20263;-58
2021/12/10 05:22:59;;;;;;;20.03;10.03;;;4.10;99.90;;;;;;4156509;28;20266;-60
2021/12/10 05:25:00;;;;;;;22.57;11.63;;;4.10;99.90;;;;;;4155694;28;20723;-58
2021/12/10 05:27:02;;;;;;;22.43;10.40;;;4.10;99.90;;;;;;4152370;28;21164;-58
2021/12/10 05:29:05;;;;;;;19.07;10.93;;;4.10;99.90;;;;;;4153900;28;20328;-57
2021/12/10 05:31:07;;;;;;;24.90;11.97;;;4.00;99.90;;;;;;4162023;28;20275;-58
2021/12/10 05:33:14;;;;;;;25.27;11.73;;;3.90;99.90;;;;;;4167796;28;20267;-56
2021/12/10 05:35:16;;;;;;;20.40;11.77;;;3.90;99.90;;;;;;4165302;28;20376;-55
2021/12/10 05:37:18;;;;;;;25.67;11.53;;;3.90;99.90;;;;;;4161815;28;20308;-60
2021/12/10 05:39:23;;;;;;;27.00;12.03;;;3.90;99.90;;;;;;4171191;28;20352;-58
2021/12/10 05:41:25;;;;;;;33.17;12.20;;;3.80;99.90;;;;;;4168579;28;20286;-58
2021/12/10 05:43:27;;;;;;;26.50;12.70;;;3.90;99.90;;;;;;4162074;28;20336;-62
2021/12/10 05:45:28;;;;;;;21.10;11.23;;;3.80;99.90;;;;;;4158711;28;20417;-57
2021/12/10 05:47:29;;;;;;;25.23;12.67;;;3.80;99.90;;;;;;4160275;28;20271;-61
2021/12/10 05:49:30;;;;;;;25.90;12.80;;;3.80;99.90;;;;;;4158672;28;20267;-57
2021/12/10 05:51:33;;;;;;;20.03;12.03;;;3.80;99.90;;;;;;4159398;28;20341;-57
2021/12/10 05:53:34;;;;;;;23.20;11.93;;;3.80;99.90;;;;;;4167900;28;20278;-55
2021/12/10 05:55:37;;;;;;;25.10;13.03;;;3.80;99.90;;;;;;4175298;28;21216;-57
2021/12/10 05:57:39;;;;;;;23.90;12.30;;;3.80;99.90;;;;;;4176035;28;20355;-56
2021/12/10 05:59:40;;;;;;;31.53;12.87;;;3.70;99.90;;;;;;4175043;28;20274;-61
2021/12/10 06:01:42;;;;;;;24.37;12.97;;;3.80;99.90;;;;;;4176167;28;20556;-57
2021/12/10 06:03:51;;;;;;;24.80;11.90;;;3.80;99.90;;;;;;4175068;28;20327;-59
2021/12/10 06:05:53;;;;;;;25.33;13.67;;;3.80;99.90;;;;;;4176438;28;20286;-57
2021/12/10 06:07:54;;;;;;;26.90;13.37;;;3.80;99.90;;;;;;4175552;28;20328;-56
2021/12/10 06:09:55;;;;;;;28.00;13.20;;;3.80;99.90;;;;;;4176340;28;20319;-56
2021/12/10 06:11:57;;;;;;;24.23;11.40;;;3.80;99.90;;;;;;4175369;28;20282;-59
2021/12/10 06:13:58;;;;;;;26.13;13.47;;;3.80;99.90;;;;;;4176472;28;20274;-57
2021/12/10 06:15:59;;;;;;;30.63;15.90;;;3.80;99.90;;;;;;4175017;28;20764;-61
2021/12/10 06:18:01;;;;;;;36.20;16.67;;;3.80;99.90;;;;;;4176251;28;20274;-60
2021/12/10 06:20:05;;;;;;;41.07;18.97;;;3.70;99.90;;;;;;4174595;28;20750;-57
2021/12/10 06:22:07;;;;;;;43.13;21.20;;;3.80;99.90;;;;;;4175827;28;20274;-59
2021/12/10 06:24:08;;;;;;;66.93;31.80;;;3.80;99.90;;;;;;4174695;28;20316;-58
2021/12/10 06:26:09;;;;;;;68.53;30.00;;;3.80;99.90;;;;;;4175952;28;20324;-58
2021/12/10 06:28:11;;;;;;;52.73;25.57;;;3.80;99.90;;;;;;4175563;28;20304;-59
2021/12/10 06:30:15;;;;;;;72.67;32.67;;;3.80;99.90;;;;;;4175911;28;20352;-64
2021/12/10 06:32:18;;;;;;;75.27;34.63;;;3.80;99.90;;;;;;4175578;28;21059;-58
2021/12/10 06:34:19;;;;;;;67.20;27.40;;;3.80;99.90;;;;;;4175043;28;20741;-63
2021/12/10 06:36:22;;;;;;;69.60;32.00;;;3.80;99.90;;;;;;4176067;28;20302;-56
2021/12/10 06:38:24;;;;;;;57.87;24.63;;;3.80;99.90;;;;;;4174431;28;20858;-56
2021/12/10 06:40:28;;;;;;;53.47;24.33;;;3.80;99.90;;;;;;4175955;28;20324;-59
2021/12/10 06:42:30;;;;;;;55.23;27.03;;;3.80;99.90;;;;;;4174290;28;20673;-58
2021/12/10 06:44:31;;;;;;;51.70;24.60;;;3.90;99.90;;;;;;4175339;28;20786;-61
2021/12/10 06:46:34;;;;;;;72.03;34.73;;;4.00;99.90;;;;;;4174748;28;20665;-59
2021/12/10 06:48:36;;;;;;;91.77;44.60;;;4.00;99.90;;;;;;4174488;28;20584;-62
2021/12/10 06:50:44;;;;;;;94.63;47.40;;;4.00;99.90;;;;;;4172864;28;20368;-59
2021/12/10 06:52:46;;;;;;;89.37;42.73;;;4.00;99.90;;;;;;4175306;28;20278;-60
2021/12/10 06:54:47;;;;;;;86.23;43.90;;;4.10;99.90;;;;;;4173788;28;20340;-63
2021/12/10 06:56:48;;;;;;;75.50;36.77;;;4.10;99.90;;;;;;4175616;28;20278;-61
2021/12/10 06:58:51;;;;;;;68.80;36.73;;;4.10;99.90;;;;;;4174569;28;20262;-58
2021/12/10 07:01:06;;;;;;;31.37;16.27;;;4.10;99.90;;;;;;4175166;28;20324;-59
2021/12/10 07:03:13;;;;;;;26.90;15.17;;;4.10;99.90;;;;;;4173968;28;20262;-59
2021/12/10 07:05:15;;;;;;;19.97;11.37;;;4.10;99.90;;;;;;4174918;28;20266;-60
2021/12/10 07:07:16;;;;;;;26.30;11.17;;;4.10;99.90;;;;;;4174589;28;20278;-59
2021/12/10 07:09:20;;;;;;;22.63;12.03;;;4.10;99.90;;;;;;4174601;28;20254;-60
2021/12/10 07:11:23;;;;;;;29.83;15.33;;;4.10;99.90;;;;;;4174355;28;20379;-60
2021/12/10 07:13:26;;;;;;;27.17;14.87;;;4.00;99.90;;;;;;4174032;28;20278;-60
2021/12/10 07:15:28;;;;;;;27.53;14.77;;;3.90;99.90;;;;;;4174902;28;20974;-59
2021/12/10 07:17:30;;;;;;;31.47;15.97;;;3.80;99.90;;;;;;4173995;28;20270;-56
2021/12/10 07:19:31;;;;;;;28.57;15.63;;;3.80;99.90;;;;;;4174992;28;20295;-60
2021/12/10 07:21:33;;;;;;;33.67;16.63;;;3.70;99.90;;;;;;4173873;28;20734;-62
2021/12/10 07:23:37;;;;;;;35.73;17.13;;;3.70;99.90;;;;;;4174904;28;20304;-58
2021/12/10 07:25:39;;;;;;;35.63;16.50;;;3.70;99.90;;;;;;4173700;28;20328;-59
2021/12/10 07:27:40;;;;;;;33.20;16.20;;;3.70;99.90;;;;;;4174780;28;20328;-56
2021/12/10 07:29:42;;;;;;;32.00;16.43;;;3.60;99.90;;;;;;4174911;28;20269;-59
2021/12/10 07:31:45;;;;;;;39.13;19.03;;;3.60;99.90;;;;;;4175060;28;20630;-59
2021/12/10 07:33:46;;;;;;;34.70;17.37;;;3.60;99.90;;;;;;4173801;28;20336;-58
2021/12/10 07:35:48;;;;;;;36.77;17.67;;;3.60;99.90;;;;;;4174762;28;20343;-58
2021/12/10 07:37:50;;;;;;;36.83;18.30;;;3.70;99.90;;;;;;4173796;28;20308;-58
2021/12/10 07:39:51;;;;;;;38.03;18.17;;;3.70;99.90;;;;;;4174750;28;20328;-58
2021/12/10 07:41:53;;;;;;;32.40;17.33;;;3.70;99.90;;;;;;4173650;28;20343;-59
2021/12/10 07:43:54;;;;;;;35.73;17.70;;;3.80;99.90;;;;;;4174348;28;20266;-58
2021/12/10 07:45:55;;;;;;;32.77;17.40;;;3.80;99.90;;;;;;4174106;28;20822;-58
2021/12/10 07:47:59;;;;;;;37.63;19.43;;;3.90;99.90;;;;;;4174060;28;20319;-59
2021/12/10 07:50:03;;;;;;;38.63;18.60;;;4.00;99.90;;;;;;4173684;28;20738;-59
2021/12/10 07:52:15;;;;;;;37.13;18.33;;;4.00;99.90;;;;;;4173236;28;20331;-57
2021/12/10 07:54:17;;;;;;;38.87;16.97;;;4.00;99.90;;;;;;4174678;28;21013;-60
2021/12/10 07:56:19;;;;;;;37.13;19.13;;;4.00;99.90;;;;;;4172937;28;20364;-56
2021/12/10 07:58:20;;;;;;;38.70;23.53;;;4.10;99.90;;;;;;4174445;28;20282;-57
2021/12/10 08:00:23;;;;;;;36.50;17.83;;;4.10;99.90;;;;;;4173620;28;20274;-63
2021/12/10 08:02:25;;;;;;;33.23;18.20;;;4.10;99.90;;;;;;4175068;28;20320;-56
2021/12/10 08:04:26;;;;;;;31.17;16.80;;;4.10;99.90;;;;;;4172901;28;20323;-59
2021/12/10 08:06:29;;;;;;;32.63;17.13;;;4.10;99.90;;;;;;4174363;28;20274;-58
2021/12/10 08:08:30;;;;;;;34.13;15.97;;;4.10;99.90;;;;;;4172919;28;20710;-58
2021/12/10 08:10:33;;;;;;;34.47;17.27;;;4.10;99.90;;;;;;4174503;28;20764;-56
2021/12/10 08:12:34;;;;;;;28.63;15.07;;;4.10;99.90;;;;;;4172840;28;20665;-60
2021/12/10 08:14:35;;;;;;;41.33;18.50;;;4.20;99.90;;;;;;4173904;28;20974;-58
2021/12/10 08:16:39;;;;;;;62.97;28.83;;;4.20;99.90;;;;;;4173120;28;20294;-57
2021/12/10 08:18:41;;;;;;;62.80;28.13;;;4.10;99.90;;;;;;4173751;28;20327;-69
2021/12/10 08:20:42;;;;;;;70.30;30.70;;;4.10;99.90;;;;;;4173461;28;20238;-57
2021/12/10 08:22:43;;;;;;;65.40;29.83;;;4.00;99.90;;;;;;4173157;28;20738;-64
2021/12/10 08:24:45;;;;;;;70.57;29.20;;;4.00;99.90;;;;;;4173763;28;20259;-56
2021/12/10 08:26:47;;;;;;;96.40;33.23;;;3.90;99.90;;;;;;4171616;28;20986;-59
2021/12/10 08:28:48;;;;;;;75.87;29.27;;;3.90;99.90;;;;;;4174377;28;20270;-58
2021/12/10 08:30:51;;;;;;;65.17;29.00;;;3.90;99.90;;;;;;4172628;28;20273;-56
2021/12/10 08:32:55;;;;;;;78.00;31.37;;;3.90;99.90;;;;;;4173883;28;20270;-58
2021/12/10 08:34:56;;;;;;;83.90;33.93;;;3.90;99.90;;;;;;4172576;28;20262;-59
2021/12/10 08:36:57;;;;;;;94.97;38.63;;;4.00;99.90;;;;;;4172597;28;20451;-58
2021/12/10 08:38:59;;;;;;;88.97;34.33;;;4.00;99.90;;;;;;4171956;28;20316;-58
2021/12/10 08:41:09;;;;;;;71.73;30.30;;;4.00;99.90;;;;;;4173135;28;20274;-61
2021/12/10 08:43:11;;;;;;;70.83;31.97;;;4.00;99.90;;;;;;4172532;28;20831;-61
2021/12/10 08:45:13;;;;;;;77.37;33.90;;;4.00;99.90;;;;;;4173718;28;20330;-58
2021/12/10 08:47:15;;;;;;;77.97;31.77;;;3.90;99.90;;;;;;4172781;28;20278;-57
2021/12/10 08:49:16;;;;;;;66.97;30.57;;;3.90;99.90;;;;;;4173374;28;20266;-58
2021/12/10 08:51:21;;;;;;;64.53;30.60;;;4.00;99.90;;;;;;4172097;28;20661;-58
2021/12/10 08:53:22;;;;;;;59.43;28.43;;;4.00;99.90;;;;;;4173389;28;20277;-59
2021/12/10 08:55:26;;;;;;;65.37;29.73;;;4.00;99.90;;;;;;4172720;28;20344;-59
2021/12/10 08:57:27;;;;;;;67.73;31.43;;;4.00;99.90;;;;;;4173533;28;20308;-57
2021/12/10 08:59:29;;;;;;;69.93;31.27;;;4.00;99.90;;;;;;4173563;28;20262;-59
2021/12/10 09:01:35;;;;;;;76.23;35.47;;;3.90;99.90;;;;;;4172855;28;20336;-64
2021/12/10 09:03:37;;;;;;;90.80;41.07;;;3.90;99.90;;;;;;4173150;28;20332;-69
2021/12/10 09:05:39;;;;;;;69.13;30.43;;;3.90;99.90;;;;;;4171651;28;20336;-57
2021/12/10 09:07:43;;;;;;;60.27;28.17;;;3.90;99.90;;;;;;4173504;28;20270;-59
2021/12/10 09:09:46;;;;;;;67.33;30.87;;;3.90;99.90;;;;;;4172081;28;20270;-57
2021/12/10 09:11:52;;;;;;;70.53;33.77;;;3.80;99.90;;;;;;4172932;28;20266;-58
2021/12/10 09:13:54;;;;;;;72.07;34.30;;;3.80;99.90;;;;;;4171749;28;20367;-59
2021/12/10 09:16:01;;;;;;;68.67;31.67;;;3.80;99.90;;;;;;4173120;28;20298;-61
2021/12/10 09:18:02;;;;;;;70.23;32.50;;;3.80;99.90;;;;;;4172170;28;20262;-58
2021/12/10 09:20:10;;;;;;;72.23;31.70;;;3.80;99.90;;;;;;4173777;28;20278;-60
2021/12/10 09:22:11;;;;;;;68.83;33.30;;;3.80;99.90;;;;;;4172568;28;20323;-57
2021/12/10 09:24:14;;;;;;;70.50;31.93;;;3.80;99.90;;;;;;4173101;28;20274;-59
2021/12/10 09:26:19;;;;;;;70.17;32.60;;;3.70;99.90;;;;;;4172312;28;20328;-57
2021/12/10 09:28:24;;;;;;;68.63;31.90;;;3.80;99.90;;;;;;4173557;28;20296;-61
2021/12/10 09:30:28;;;;;;;66.50;32.93;;;3.80;99.90;;;;;;4172307;28;20355;-59
2021/12/10 09:32:31;;;;;;;55.77;28.60;;;3.80;99.90;;;;;;4173463;28;20308;-58
2021/12/10 09:34:32;;;;;;;55.10;29.77;;;3.70;99.90;;;;;;4172043;28;20677;-60
2021/12/10 09:36:34;;;;;;;62.50;30.03;;;3.70;99.90;;;;;;4172469;28;20289;-58
2021/12/10 09:38:35;;;;;;;59.97;30.27;;;3.70;99.90;;;;;;4172890;28;20266;-58
2021/12/10 09:40:41;;;;;;;62.07;29.87;;;3.70;99.90;;;;;;4172471;28;20340;-60
2021/12/10 09:42:43;;;;;;;74.57;30.87;;;3.70;99.90;;;;;;4172608;28;20270;-57
2021/12/10 09:44:44;;;;;;;66.00;31.37;;;3.70;99.90;;;;;;4172117;28;20273;-58
2021/12/10 09:46:47;;;;;;;59.60;30.53;;;3.70;99.90;;;;;;4172907;28;21102;-55
2021/12/10 09:48:51;;;;;;;64.23;28.10;;;3.70;99.90;;;;;;4171933;28;20266;-60
2021/12/10 09:51:05;;;;;;;65.17;30.53;;;3.80;99.90;;;;;;4173191;28;20316;-58
2021/12/10 09:53:07;;;;;;;49.67;23.57;;;3.80;99.90;;;;;;4171544;28;20658;-60
2021/12/10 09:55:12;;;;;;;45.33;23.40;;;3.90;99.90;;;;;;4173573;28;20279;-60
2021/12/10 09:57:18;;;;;;;44.30;22.77;;;3.80;99.90;;;;;;4171706;28;20416;-57
2021/12/10 09:59:21;;;;;;;37.60;17.77;;;3.70;99.90;;;;;;4173512;28;20262;-60
2021/12/10 10:01:37;;;;;;;40.50;19.13;;;3.70;99.90;;;;;;4172012;28;20281;-61
2021/12/10 10:03:41;;;;;;;31.40;16.73;;;3.70;99.90;;;;;;4173457;28;20710;-59
2021/12/10 10:05:45;;;;;;;29.87;16.30;;;3.70;99.90;;;;;;4171701;28;20324;-59
2021/12/10 10:07:51;;;;;;;30.30;16.47;;;3.70;99.90;;;;;;4172801;28;20843;-57
2021/12/10 10:09:59;;;;;;;41.27;19.93;;;3.70;99.90;;;;;;4171791;28;20274;-57
2021/12/10 10:12:11;;;;;;;37.50;19.70;;;3.70;99.90;;;;;;4172818;28;20278;-59
2021/12/10 10:14:12;;;;;;;33.47;18.33;;;3.70;99.90;;;;;;4171378;28;20829;-59
2021/12/10 10:16:15;;;;;;;35.03;18.07;;;3.60;99.90;;;;;;4172700;28;20368;-56
2021/12/10 10:18:20;;;;;;;29.97;17.30;;;3.50;99.90;;;;;;4171725;28;21212;-59
2021/12/10 10:20:21;;;;;;;31.70;17.90;;;3.50;99.90;;;;;;4173365;28;20266;-57
2021/12/10 10:22:27;;;;;;;34.47;16.57;;;3.50;99.90;;;;;;4172336;28;20259;-59
2021/12/10 10:24:30;;;;;;;35.27;18.27;;;3.50;99.90;;;;;;4175074;28;20274;-57
2021/12/10 10:26:35;;;;;;;36.43;17.77;;;3.50;99.90;;;;;;4174994;28;20813;-58
2021/12/10 10:28:37;;;;;;;33.43;18.50;;;3.50;99.90;;;;;;4175769;28;20676;-57
2021/12/10 10:31:02;;;;;;;39.73;17.73;;;3.60;99.90;;;;;;4174756;28;20373;-59
2021/12/10 10:33:08;;;;;;;28.70;17.17;;;3.60;99.90;;;;;;4175736;28;20359;-57
2021/12/10 10:35:17;;;;;;;37.27;18.97;;;3.60;99.90;;;;;;4174529;28;20292;-56
2021/12/10 10:37:19;;;;;;;35.20;17.13;;;3.60;99.90;;;;;;4174808;28;20378;-59
2021/12/10 10:39:24;;;;;;;33.47;18.70;;;3.50;99.90;;;;;;4174827;28;21579;-58
2021/12/10 10:41:28;;;;;;;33.97;16.90;;;3.60;99.90;;;;;;4174961;28;20254;-60
2021/12/10 10:43:30;;;;;;;29.17;15.87;;;3.60;99.90;;;;;;4174402;28;20270;-59
2021/12/10 10:45:35;;;;;;;33.37;16.87;;;3.60;99.90;;;;;;4174947;28;20668;-58